Terminal Aerodrome Forecast
Issued by NWS

Home | Current Version | Previous Version | Text Only | Print | Product List | Glossary On
Versions: 1 2 3 4 5 6 7 8 9 10 11 12 13 14 15 16 17 18 19 20 21 22 23 24 25 26 27 28 29 30
000
FTUS41 KALY 172326
TAFPSF
TAF
KPSF 172326Z 1800/1824 00000KT P6SM BKN150 OVC200
     FM180700 00000KT 3SM -SN BR OVC020 PROB30 1809/1813 2SM -SN BR
      OVC010
     FM181300 22003KT P6SM VCSH OVC015
     FM181800 23005KT P6SM OVC020=

USA.gov is the U.S. government's official web portal to all federal, state and local government web resources and services.